createdAt,value
2023-02-09T00:02:14.455Z,9.17
2023-02-09T00:04:42.602Z,9.37
2023-02-09T00:07:11.116Z,9.60
2023-02-09T00:09:40.846Z,9.43
2023-02-09T00:12:27.995Z,9.43
2023-02-09T00:14:56.127Z,10.00
2023-02-09T00:17:24.301Z,10.40
2023-02-09T00:19:54.585Z,10.03
2023-02-09T00:22:24.992Z,10.30
2023-02-09T00:24:57.317Z,9.10
2023-02-09T00:27:25.520Z,9.40
2023-02-09T00:29:53.800Z,8.27
2023-02-09T00:32:21.944Z,8.47
2023-02-09T00:34:50.166Z,8.37
2023-02-09T00:37:18.136Z,7.83
2023-02-09T00:39:46.254Z,8.00
2023-02-09T00:42:15.662Z,8.00
2023-02-09T00:44:43.759Z,8.30
2023-02-09T00:47:12.017Z,7.90
2023-02-09T00:49:40.604Z,8.90
2023-02-09T00:52:10.154Z,8.57
2023-02-09T00:54:38.641Z,7.93
2023-02-09T00:57:06.892Z,7.60
2023-02-09T00:59:36.852Z,8.23
2023-02-09T01:02:05.323Z,7.87
2023-02-09T01:04:33.595Z,8.17
2023-02-09T01:07:01.657Z,8.13
2023-02-09T01:09:29.895Z,7.37
2023-02-09T01:11:57.962Z,7.80
2023-02-09T01:14:26.111Z,7.80
2023-02-09T01:16:55.545Z,8.33
2023-02-09T01:19:23.544Z,8.33
2023-02-09T01:21:51.881Z,8.57
2023-02-09T01:24:19.988Z,8.20
2023-02-09T01:26:48.112Z,7.77
2023-02-09T01:29:18.291Z,8.30
2023-02-09T01:31:47.718Z,7.27
2023-02-09T01:34:18.919Z,7.93
2023-02-09T01:36:46.990Z,7.93
2023-02-09T01:39:15.562Z,7.53
2023-02-09T01:41:44.588Z,7.63
2023-02-09T01:44:48.833Z,7.57
2023-02-09T01:47:21.007Z,8.13
2023-02-09T01:49:52.220Z,7.07
2023-02-09T01:52:27.037Z,7.07
2023-02-09T01:54:58.725Z,7.70
2023-02-09T01:57:32.521Z,7.00
2023-02-09T02:00:03.640Z,7.43
2023-02-09T02:02:32.327Z,7.33
2023-02-09T02:05:02.320Z,8.10
2023-02-09T02:07:37.564Z,8.03
2023-02-09T02:10:06.196Z,7.93
2023-02-09T02:12:34.936Z,8.00
2023-02-09T02:15:03.155Z,7.90
2023-02-09T02:17:45.671Z,7.73
2023-02-09T02:20:52.199Z,7.47
2023-02-09T02:23:28.269Z,7.70
2023-02-09T02:26:35.087Z,7.07
2023-02-09T02:29:28.453Z,7.80
2023-02-09T02:32:23.717Z,7.40
2023-02-09T02:34:59.120Z,7.47
2023-02-09T02:37:36.363Z,7.90
2023-02-09T02:40:11.960Z,7.60
2023-02-09T02:42:52.030Z,7.27
2023-02-09T02:45:41.089Z,8.00
2023-02-09T02:48:24.141Z,7.40
2023-02-09T02:50:56.661Z,7.63
2023-02-09T02:53:29.250Z,8.00
2023-02-09T02:56:01.534Z,7.47
2023-02-09T02:58:31.192Z,6.63
2023-02-09T03:01:03.191Z,8.47
2023-02-09T03:03:37.627Z,7.20
2023-02-09T03:06:07.388Z,7.17
2023-02-09T03:08:52.209Z,7.23
2023-02-09T03:11:22.566Z,7.67
2023-02-09T03:14:01.067Z,8.30
2023-02-09T03:16:38.066Z,8.07
2023-02-09T03:19:15.464Z,7.30
2023-02-09T03:21:50.674Z,7.83
2023-02-09T03:24:28.619Z,8.07
2023-02-09T03:26:59.535Z,7.70
2023-02-09T03:29:29.837Z,7.50
2023-02-09T03:31:58.801Z,7.10
2023-02-09T03:34:28.846Z,7.50
2023-02-09T03:36:58.346Z,8.37
2023-02-09T03:39:26.223Z,7.67
2023-02-09T03:41:54.318Z,8.03
2023-02-09T03:44:27.227Z,8.30
2023-02-09T03:46:56.951Z,7.57
2023-02-09T03:49:25.351Z,8.13
2023-02-09T03:51:55.844Z,7.83
2023-02-09T03:54:24.291Z,7.87
2023-02-09T03:56:52.401Z,8.13
2023-02-09T03:59:21.389Z,8.60
2023-02-09T04:01:50.479Z,8.97
2023-02-09T04:04:20.069Z,7.27
2023-02-09T04:06:49.216Z,7.63
2023-02-09T04:09:21.882Z,7.87
2023-02-09T04:11:53.237Z,7.60
2023-02-09T04:14:22.721Z,8.70
2023-02-09T04:16:52.751Z,7.63
2023-02-09T04:19:21.477Z,7.63
2023-02-09T04:21:52.627Z,7.87
2023-02-09T04:24:36.304Z,7.70
2023-02-09T04:27:04.710Z,7.53
2023-02-09T04:29:33.234Z,7.23
2023-02-09T04:32:03.141Z,6.70
2023-02-09T04:34:31.748Z,7.60
2023-02-09T04:37:05.200Z,7.27
2023-02-09T04:39:37.015Z,7.23
2023-02-09T04:42:10.481Z,7.23
2023-02-09T04:44:38.759Z,7.00
2023-02-09T04:47:11.460Z,7.60
2023-02-09T04:49:40.858Z,7.23
2023-02-09T04:52:09.069Z,6.97
2023-02-09T04:54:38.477Z,7.13
2023-02-09T04:57:23.870Z,7.23
2023-02-09T04:59:52.051Z,7.87
2023-02-09T05:02:20.003Z,7.03
2023-02-09T05:04:48.182Z,6.83
2023-02-09T05:07:16.491Z,7.50
2023-02-09T05:09:45.813Z,6.77
2023-02-09T05:12:13.862Z,6.70
2023-02-09T05:14:41.922Z,6.80
2023-02-09T05:17:10.053Z,6.70
2023-02-09T05:19:38.033Z,7.20
2023-02-09T05:22:06.257Z,6.53
2023-02-09T05:24:34.362Z,7.37
2023-02-09T05:27:03.784Z,7.80
2023-02-09T05:29:31.803Z,6.97
2023-02-09T05:31:59.924Z,6.77
2023-02-09T05:34:29.737Z,7.30
2023-02-09T05:36:57.850Z,7.10
2023-02-09T05:39:26.390Z,7.30
2023-02-09T05:42:11.655Z,7.07
2023-02-09T05:44:41.086Z,6.77
2023-02-09T05:47:09.149Z,7.23
2023-02-09T05:49:37.187Z,7.43
2023-02-09T05:52:05.820Z,7.20
2023-02-09T05:54:34.175Z,7.20
2023-02-09T05:57:02.538Z,7.57
2023-02-09T05:59:33.214Z,7.17
2023-02-09T06:02:02.961Z,7.03
2023-02-09T06:04:32.636Z,8.10
2023-02-09T06:07:00.695Z,6.93
2023-02-09T06:09:29.027Z,7.60
2023-02-09T06:11:57.070Z,6.87
2023-02-09T06:14:26.181Z,6.87
2023-02-09T06:16:54.322Z,6.87
2023-02-09T06:19:23.791Z,8.30
2023-02-09T06:21:51.781Z,7.17
2023-02-09T06:24:19.627Z,7.40
2023-02-09T06:26:47.991Z,7.43
2023-02-09T06:29:16.253Z,8.03
2023-02-09T06:31:44.593Z,8.03
2023-02-09T06:34:14.749Z,7.53
2023-02-09T06:36:44.168Z,8.67
2023-02-09T06:39:12.858Z,8.67
2023-02-09T06:41:41.323Z,9.03
2023-02-09T06:44:09.572Z,9.20
2023-02-09T06:46:37.645Z,8.17
2023-02-09T06:49:08.614Z,7.40
2023-02-09T06:51:37.750Z,8.03
2023-02-09T06:54:07.377Z,9.50
2023-02-09T06:56:35.294Z,7.87
2023-02-09T06:59:03.461Z,7.73
2023-02-09T07:01:31.668Z,6.30
2023-02-09T07:03:59.741Z,6.83
2023-02-09T07:06:28.041Z,6.93
2023-02-09T07:08:56.107Z,7.40
2023-02-09T07:11:25.693Z,6.70
2023-02-09T07:13:53.709Z,7.40
2023-02-09T07:16:21.859Z,7.63
2023-02-09T07:18:49.959Z,7.33
2023-02-09T07:21:19.920Z,7.13
2023-02-09T07:23:48.826Z,6.30
2023-02-09T07:26:18.858Z,7.03
2023-02-09T07:28:48.407Z,6.03
2023-02-09T07:31:17.647Z,6.37
2023-02-09T07:33:46.142Z,6.40
2023-02-09T07:36:16.177Z,6.93
2023-02-09T07:38:44.685Z,6.77
2023-02-09T07:41:19.384Z,6.40
2023-02-09T07:43:49.107Z,6.97
2023-02-09T07:46:18.913Z,7.10
2023-02-09T07:48:46.946Z,6.43
2023-02-09T07:51:15.949Z,7.33
2023-02-09T07:53:44.011Z,6.67
2023-02-09T07:56:12.409Z,6.87
2023-02-09T07:58:40.522Z,6.27
2023-02-09T08:01:12.243Z,7.13
2023-02-09T08:03:41.843Z,6.77
2023-02-09T08:06:19.635Z,6.97
2023-02-09T08:08:49.087Z,6.93
2023-02-09T08:11:18.557Z,7.27
2023-02-09T08:13:46.811Z,6.77
2023-02-09T08:16:19.055Z,6.70
2023-02-09T08:18:52.664Z,6.97
2023-02-09T08:21:21.612Z,6.90
2023-02-09T08:23:53.847Z,6.17
2023-02-09T08:26:22.387Z,7.20
2023-02-09T08:28:51.098Z,6.50
2023-02-09T08:31:22.239Z,6.87
2023-02-09T08:33:51.997Z,6.37
2023-02-09T08:36:21.855Z,6.30
2023-02-09T08:38:49.720Z,7.27
2023-02-09T08:41:18.869Z,6.90
2023-02-09T08:43:50.061Z,6.83
2023-02-09T08:46:18.828Z,6.83
2023-02-09T08:48:48.547Z,6.77
2023-02-09T08:51:17.635Z,6.97
2023-02-09T08:53:52.142Z,7.33
2023-02-09T08:56:21.975Z,6.77
2023-02-09T08:58:50.461Z,7.43
2023-02-09T09:01:18.696Z,6.67
2023-02-09T09:03:48.363Z,7.40
2023-02-09T09:06:16.634Z,7.03
2023-02-09T09:08:44.959Z,7.30
2023-02-09T09:11:14.796Z,7.47
2023-02-09T09:13:43.636Z,8.10
2023-02-09T09:16:18.657Z,7.50
2023-02-09T09:18:48.964Z,7.23
2023-02-09T09:21:19.697Z,7.93
2023-02-09T09:23:48.375Z,6.93
2023-02-09T09:26:17.252Z,7.83
2023-02-09T09:28:45.772Z,7.07
2023-02-09T09:31:16.957Z,6.63
2023-02-09T09:33:47.923Z,7.60
2023-02-09T09:36:16.165Z,6.73
2023-02-09T09:38:45.147Z,7.30
2023-02-09T09:41:24.027Z,6.80
2023-02-09T09:43:53.278Z,7.40
2023-02-09T09:46:23.954Z,6.63
2023-02-09T09:48:56.547Z,8.20
2023-02-09T09:51:34.101Z,7.13
2023-02-09T09:54:04.074Z,7.70
2023-02-09T09:56:33.573Z,7.67
2023-02-09T09:59:03.044Z,8.37
2023-02-09T10:01:34.041Z,8.00
2023-02-09T10:04:08.047Z,8.17
2023-02-09T10:06:35.978Z,7.57
2023-02-09T10:09:09.301Z,8.00
2023-02-09T10:11:42.181Z,7.63
2023-02-09T10:14:11.177Z,7.60
2023-02-09T10:16:39.522Z,8.33
2023-02-09T10:19:20.073Z,8.43
2023-02-09T10:21:49.602Z,8.63
2023-02-09T10:24:24.941Z,8.80
2023-02-09T10:27:14.531Z,7.97
2023-02-09T10:29:43.093Z,8.50
2023-02-09T10:32:17.169Z,8.07
2023-02-09T10:34:50.498Z,9.10
2023-02-09T10:37:26.830Z,8.10
2023-02-09T10:40:06.958Z,8.40
2023-02-09T10:42:36.927Z,9.10
2023-02-09T10:45:14.629Z,10.47
2023-02-09T10:47:57.229Z,9.40
2023-02-09T10:50:26.737Z,8.10
2023-02-09T10:53:01.038Z,9.40
2023-02-09T10:55:35.314Z,8.47
2023-02-09T10:58:13.482Z,8.63
2023-02-09T11:00:50.326Z,8.73
2023-02-09T11:03:20.852Z,9.20
2023-02-09T11:05:59.895Z,9.90
2023-02-09T11:08:41.740Z,10.17
2023-02-09T11:11:15.496Z,9.17
2023-02-09T11:13:43.602Z,9.03
2023-02-09T11:16:48.436Z,9.13
2023-02-09T11:19:31.578Z,10.17
2023-02-09T11:22:07.375Z,9.87
2023-02-09T11:24:48.165Z,10.17
2023-02-09T11:27:31.954Z,8.90
2023-02-09T11:30:12.565Z,9.77
2023-02-09T11:32:45.227Z,10.70
2023-02-09T11:35:18.945Z,10.10
2023-02-09T11:37:56.534Z,10.70
2023-02-09T11:40:30.344Z,9.70
2023-02-09T11:43:14.638Z,9.97
2023-02-09T11:45:45.963Z,9.60
2023-02-09T11:48:20.858Z,10.13
2023-02-09T11:50:58.001Z,11.47
2023-02-09T11:53:35.903Z,10.17
2023-02-09T11:56:06.113Z,11.20
2023-02-09T11:58:41.510Z,10.63
2023-02-09T12:01:20.313Z,10.87
2023-02-09T12:04:00.166Z,10.20
2023-02-09T12:06:33.825Z,11.60
2023-02-09T12:09:12.082Z,11.10
2023-02-09T12:12:04.227Z,11.47
2023-02-09T12:14:54.771Z,11.77
2023-02-09T12:17:29.999Z,11.80
2023-02-09T12:20:00.357Z,11.63
2023-02-09T12:22:50.189Z,12.00
2023-02-09T12:25:36.486Z,11.40
2023-02-09T12:28:18.064Z,10.43
2023-02-09T12:31:16.249Z,11.87
2023-02-09T12:34:23.641Z,11.87
2023-02-09T12:37:18.577Z,10.03
2023-02-09T12:40:23.960Z,11.80
2023-02-09T12:43:13.726Z,11.50
2023-02-09T12:45:42.883Z,12.90
2023-02-09T12:48:19.322Z,11.63
2023-02-09T12:50:53.859Z,12.63
2023-02-09T12:53:46.101Z,12.10
2023-02-09T12:56:30.472Z,12.50
2023-02-09T12:59:18.473Z,13.40
2023-02-09T13:02:16.004Z,12.23
2023-02-09T13:04:58.685Z,12.27
2023-02-09T13:07:36.769Z,12.00
2023-02-09T13:10:15.562Z,13.57
2023-02-09T13:12:49.904Z,13.10
2023-02-09T13:15:20.209Z,12.70
2023-02-09T13:18:02.863Z,12.23
2023-02-09T13:21:08.191Z,13.47
2023-02-09T13:23:43.414Z,13.13
2023-02-09T13:26:19.929Z,14.10
2023-02-09T13:28:47.914Z,14.00
2023-02-09T13:31:37.105Z,14.37
2023-02-09T13:34:19.002Z,15.25
2023-02-09T13:36:55.016Z,16.10
2023-02-09T13:39:25.803Z,16.93
2023-02-09T13:41:55.606Z,16.57
2023-02-09T13:44:25.309Z,18.97
2023-02-09T13:46:56.570Z,19.93
2023-02-09T13:49:25.953Z,21.97
2023-02-09T13:52:14.544Z,23.57
2023-02-09T13:54:43.495Z,25.67
2023-02-09T13:57:17.696Z,28.13
2023-02-09T13:59:46.287Z,29.27
2023-02-09T14:02:23.221Z,30.87
2023-02-09T14:04:54.356Z,32.27
2023-02-09T14:07:25.767Z,33.57
2023-02-09T14:09:59.428Z,32.70
2023-02-09T14:12:52.393Z,34.57
2023-02-09T14:15:40.269Z,33.70
2023-02-09T14:18:32.207Z,35.00
2023-02-09T14:21:18.661Z,35.27
2023-02-09T14:23:49.180Z,38.23
2023-02-09T14:26:25.823Z,39.57
2023-02-09T14:28:56.481Z,38.40
2023-02-09T14:31:26.483Z,38.83
2023-02-09T14:33:57.401Z,40.13
2023-02-09T14:36:30.499Z,38.87
2023-02-09T14:39:12.055Z,38.17
2023-02-09T14:41:40.614Z,39.00
2023-02-09T14:44:21.879Z,39.10
2023-02-09T14:46:51.980Z,39.53
2023-02-09T14:49:24.184Z,39.50
2023-02-09T14:51:58.082Z,40.77
2023-02-09T14:54:36.045Z,39.73
2023-02-09T14:57:05.619Z,39.97
2023-02-09T14:59:34.037Z,38.97
2023-02-09T15:02:02.132Z,40.50
2023-02-09T15:04:31.904Z,39.27
2023-02-09T15:07:04.410Z,41.20
2023-02-09T15:09:36.469Z,39.40
2023-02-09T15:12:05.731Z,39.80
2023-02-09T15:14:39.530Z,39.57
2023-02-09T15:17:16.374Z,40.10
2023-02-09T15:19:46.679Z,39.10
2023-02-09T15:22:18.428Z,39.87
2023-02-09T15:24:48.104Z,40.93
2023-02-09T15:27:21.716Z,39.60
2023-02-09T15:29:50.299Z,40.23
2023-02-09T15:32:20.819Z,38.73
2023-02-09T15:34:51.874Z,39.57
2023-02-09T15:37:24.860Z,39.97
2023-02-09T15:39:56.420Z,39.10
2023-02-09T15:42:42.185Z,39.60
2023-02-09T15:45:40.546Z,38.60
2023-02-09T15:48:09.682Z,38.43
2023-02-09T15:50:42.074Z,40.37
2023-02-09T15:53:15.014Z,39.17
2023-02-09T15:55:44.859Z,39.50
2023-02-09T15:58:15.261Z,39.87
2023-02-09T16:00:43.514Z,39.07
2023-02-09T16:03:15.903Z,40.30
2023-02-09T16:05:46.994Z,38.77
2023-02-09T16:08:21.154Z,39.10
2023-02-09T16:10:49.872Z,39.23
2023-02-09T16:13:20.349Z,40.33
2023-02-09T16:15:49.588Z,39.70
2023-02-09T16:18:17.903Z,39.20
2023-02-09T16:20:54.880Z,39.97
2023-02-09T16:23:27.309Z,39.57
2023-02-09T16:25:55.616Z,38.93
2023-02-09T16:28:23.860Z,39.90
2023-02-09T16:30:54.773Z,39.50
2023-02-09T16:33:25.288Z,39.67
2023-02-09T16:35:56.947Z,39.03
2023-02-09T16:38:31.707Z,40.33
2023-02-09T16:41:00.412Z,39.20
2023-02-09T16:43:28.952Z,37.90
2023-02-09T16:46:03.685Z,38.10
2023-02-09T16:48:34.610Z,36.73
2023-02-09T16:51:04.217Z,36.53
2023-02-09T16:53:35.355Z,37.60
2023-02-09T16:56:06.634Z,38.77
2023-02-09T16:58:35.235Z,37.97
2023-02-09T17:01:04.212Z,37.70
2023-02-09T17:03:36.146Z,37.37
2023-02-09T17:06:07.316Z,37.30
2023-02-09T17:08:38.023Z,37.63
2023-02-09T17:11:07.894Z,38.20
2023-02-09T17:13:36.096Z,37.43
2023-02-09T17:16:07.033Z,36.90
2023-02-09T17:18:40.335Z,37.07
2023-02-09T17:21:14.525Z,37.40
2023-02-09T17:23:43.542Z,37.63
2023-02-09T17:26:11.896Z,37.07
2023-02-09T17:28:42.958Z,36.60
2023-02-09T17:31:18.750Z,35.83
2023-02-09T17:33:49.216Z,42.30
2023-02-09T17:36:26.239Z,44.13
2023-02-09T17:38:56.123Z,42.20
2023-02-09T17:41:29.836Z,43.77
2023-02-09T17:44:05.582Z,43.23
2023-02-09T17:46:42.918Z,41.90
2023-02-09T17:49:11.341Z,43.17
2023-02-09T17:51:42.974Z,41.77
2023-02-09T17:54:14.328Z,42.83
2023-02-09T17:56:43.157Z,42.00
2023-02-09T17:59:13.097Z,41.77
2023-02-09T18:01:43.144Z,41.47
2023-02-09T18:04:17.344Z,42.23
2023-02-09T18:06:49.713Z,41.30
2023-02-09T18:09:17.839Z,40.80
2023-02-09T18:12:05.353Z,40.50
2023-02-09T18:14:35.328Z,41.87
2023-02-09T18:17:03.682Z,41.23
2023-02-09T18:19:34.082Z,41.27
2023-02-09T18:22:04.724Z,40.87
2023-02-09T18:24:36.928Z,40.50
2023-02-09T18:27:05.689Z,41.27
2023-02-09T18:29:33.976Z,42.60
2023-02-09T18:32:03.663Z,40.07
2023-02-09T18:34:32.171Z,42.13
2023-02-09T18:37:00.169Z,42.47
2023-02-09T18:39:30.643Z,41.17
2023-02-09T18:42:01.533Z,42.57
2023-02-09T18:44:32.344Z,41.20
2023-02-09T18:47:01.954Z,42.40
2023-02-09T18:49:31.149Z,42.30
2023-02-09T18:51:59.591Z,41.40
2023-02-09T18:54:34.296Z,42.03
2023-02-09T18:57:02.474Z,42.10
2023-02-09T18:59:31.993Z,42.00
2023-02-09T19:02:00.729Z,42.33
2023-02-09T19:04:28.859Z,43.27
2023-02-09T19:06:58.727Z,42.43
2023-02-09T19:09:27.095Z,42.87
2023-02-09T19:11:59.365Z,41.87
2023-02-09T19:14:39.317Z,43.67
2023-02-09T19:17:08.708Z,42.53
2023-02-09T19:19:38.214Z,41.93
2023-02-09T19:22:07.015Z,43.87
2023-02-09T19:24:35.137Z,42.63
2023-02-09T19:27:06.713Z,41.73
2023-02-09T19:29:35.016Z,42.30
2023-02-09T19:32:03.408Z,42.67
2023-02-09T19:34:32.906Z,42.27
2023-02-09T19:37:01.254Z,41.80
2023-02-09T19:39:29.403Z,41.80
2023-02-09T19:41:57.383Z,40.87
2023-02-09T19:44:26.828Z,40.33
2023-02-09T19:46:54.893Z,41.43
2023-02-09T19:49:22.996Z,42.20
2023-02-09T19:51:51.237Z,42.53
2023-02-09T19:54:20.293Z,42.73
2023-02-09T19:56:48.484Z,42.27
2023-02-09T19:59:17.297Z,41.33
2023-02-09T20:01:47.093Z,39.83
2023-02-09T20:04:15.615Z,39.40
2023-02-09T20:06:43.931Z,41.43
2023-02-09T20:09:12.740Z,41.43
2023-02-09T20:11:40.900Z,39.73
2023-02-09T20:14:09.778Z,40.37
2023-02-09T20:16:37.955Z,41.33
2023-02-09T20:19:07.624Z,40.27
2023-02-09T20:21:35.675Z,41.07
2023-02-09T20:24:09.518Z,39.90
2023-02-09T20:26:37.767Z,41.27
2023-02-09T20:29:06.511Z,39.60
2023-02-09T20:31:37.565Z,41.57
2023-02-09T20:34:09.077Z,39.97
2023-02-09T20:36:40.003Z,41.10
2023-02-09T20:39:13.434Z,41.20
2023-02-09T20:42:01.583Z,42.10
2023-02-09T20:44:47.182Z,42.77
2023-02-09T20:47:15.561Z,41.10
2023-02-09T20:49:45.076Z,41.23
2023-02-09T20:52:13.352Z,41.13
2023-02-09T20:54:41.873Z,40.47
2023-02-09T20:57:09.963Z,41.47
2023-02-09T20:59:37.968Z,39.70
2023-02-09T21:02:06.043Z,41.33
2023-02-09T21:04:34.109Z,40.10
2023-02-09T21:07:04.311Z,40.37
2023-02-09T21:09:34.249Z,40.80
2023-02-09T21:12:02.389Z,40.50
2023-02-09T21:14:41.778Z,39.90
2023-02-09T21:17:11.010Z,41.07
2023-02-09T21:19:39.473Z,41.80
2023-02-09T21:22:09.136Z,39.67
2023-02-09T21:24:38.897Z,39.93
2023-02-09T21:27:07.554Z,40.33
2023-02-09T21:29:35.982Z,40.77
2023-02-09T21:32:06.187Z,39.23
2023-02-09T21:34:34.714Z,38.90
2023-02-09T21:37:02.915Z,39.83
2023-02-09T21:39:34.402Z,39.40
2023-02-09T21:42:20.161Z,40.57
2023-02-09T21:44:48.489Z,39.83
2023-02-09T21:47:19.064Z,41.50
2023-02-09T21:49:47.110Z,40.07
2023-02-09T21:52:17.308Z,40.20
2023-02-09T21:54:47.037Z,40.73
2023-02-09T21:57:15.054Z,41.20
2023-02-09T21:59:43.692Z,40.60
2023-02-09T22:02:15.198Z,39.63
2023-02-09T22:04:43.677Z,39.93
2023-02-09T22:07:12.807Z,41.27
2023-02-09T22:09:41.141Z,40.83
2023-02-09T22:12:11.647Z,38.70
2023-02-09T22:14:41.317Z,39.93
2023-02-09T22:17:09.429Z,40.63
2023-02-09T22:19:38.534Z,38.27
2023-02-09T22:22:06.615Z,40.00
2023-02-09T22:24:35.011Z,39.10
2023-02-09T22:27:03.616Z,41.07
2023-02-09T22:29:34.543Z,40.30
2023-02-09T22:32:03.086Z,40.93
2023-02-09T22:34:32.682Z,40.43
2023-02-09T22:37:00.633Z,39.70
2023-02-09T22:39:28.610Z,39.30
2023-02-09T22:41:58.021Z,39.23
2023-02-09T22:44:28.061Z,38.73
2023-02-09T22:46:57.798Z,37.80
2023-02-09T22:49:25.845Z,38.83
2023-02-09T22:51:53.872Z,37.77
2023-02-09T22:54:22.335Z,37.60
2023-02-09T22:56:50.386Z,37.23
2023-02-09T22:59:18.584Z,36.97
2023-02-09T23:01:46.990Z,37.20
2023-02-09T23:04:17.654Z,36.20
2023-02-09T23:06:46.158Z,36.80
2023-02-09T23:09:15.323Z,36.30
2023-02-09T23:11:44.259Z,36.33
2023-02-09T23:14:12.744Z,35.30
2023-02-09T23:16:42.082Z,37.53
2023-02-09T23:19:13.187Z,35.37
2023-02-09T23:21:44.527Z,35.83
2023-02-09T23:24:13.136Z,35.67
2023-02-09T23:26:41.696Z,36.87
2023-02-09T23:29:11.603Z,36.20
2023-02-09T23:31:43.568Z,35.80
2023-02-09T23:34:14.465Z,34.87
2023-02-09T23:36:43.998Z,35.90
2023-02-09T23:39:16.214Z,35.27
2023-02-09T23:41:45.040Z,36.80
2023-02-09T23:44:13.595Z,35.30
2023-02-09T23:46:41.749Z,36.80
2023-02-09T23:49:09.927Z,35.97
2023-02-09T23:51:38.259Z,36.00
2023-02-09T23:54:11.517Z,34.93
2023-02-09T23:56:39.968Z,34.70
2023-02-09T23:59:13.888Z,34.77
